^^
Saratoga-Weather Station Historical Data
Daily Summary for May 7, 2020 Units:  Metric    English   Both
Daily Weekly Monthly Yearly Custom
  High: Low: Average:
Temperature: 4.4 °C 0.2 °C 3.3 °C
Dew Point: 3.2 °C -0.5 °C 1.9 °C
Humidity: 95% 88% 91%
Wind Speed: 9.7km/h 0km/h 1.2km/h
Wind Gust: 11.3km/h - -
Wind- - East
Pressure: 1000.3 hPa 999.3 hPa -
Precipitation: 0.0 mm    
Historical Graphs
 
 
Tabular Data for May 7, 2020
Time Temperature Dew Point Pressure Wind Wind Speed Wind Gust Humidity Rainfall Rate (Hourly) solar
09:04 2 °C 1.1 °C 999.7 hPa Calm   1.6 km/h 94% 0.0 mm 26 W/m2
09:09 2.1 °C 1.2 °C 999.7 hPa Calm   1.6 km/h 94% 0.0 mm 30 W/m2
09:14 2.1 °C 1.2 °C 999.7 hPa Calm   1.6 km/h 94% 0.0 mm 35 W/m2
09:19 2.2 °C 1.3 °C 999.7 hPa Calm     94% 0.0 mm 42 W/m2
09:24 2.2 °C 1.3 °C 999.7 hPa Calm     94% 0.0 mm 47 W/m2
09:29 2.3 °C 1.4 °C 999.7 hPa Calm   1.6 km/h 94% 0.0 mm 53 W/m2
09:34 2.3 °C 1.4 °C 999.7 hPa SE 1.4 km/h 3.2 km/h 94% 0.0 mm 53 W/m2
09:39 2.4 °C 1.5 °C 999.7 hPa ENE 3.2 km/h 3.2 km/h 94% 0.0 mm 58 W/m2
09:44 2.4 °C 1.5 °C 999.7 hPa ENE 3.2 km/h 3.2 km/h 94% 0.0 mm 65 W/m2
09:49 2.5 °C 1.6 °C 1000.0 hPa NE 3.2 km/h 3.2 km/h 94% 0.0 mm 63 W/m2
09:54 2.6 °C 1.7 °C 999.7 hPa Calm   4.8 km/h 94% 0.0 mm 58 W/m2
09:59 2.6 °C 1.7 °C 1000.0 hPa ENE 1.4 km/h 1.6 km/h 94% 0.0 mm 58 W/m2
10:04 2.7 °C 1.7 °C 1000.0 hPa Calm   4.8 km/h 93% 0.0 mm 67 W/m2
10:09 2.8 °C 1.8 °C 1000.0 hPa Calm   4.8 km/h 93% 0.0 mm 67 W/m2
10:14 2.8 °C 1.8 °C 1000.0 hPa East 3.2 km/h 4.8 km/h 93% 0.0 mm 65 W/m2
10:19 2.8 °C 1.8 °C 1000.0 hPa Calm   6.4 km/h 93% 0.0 mm 60 W/m2
10:24 2.8 °C 1.8 °C 1000.3 hPa East 3.2 km/h 3.2 km/h 93% 0.0 mm 60 W/m2
10:29 2.9 °C 1.9 °C 1000.3 hPa Calm   6.4 km/h 93% 0.0 mm 65 W/m2
10:35 2.9 °C 1.9 °C 1000.3 hPa East 3.2 km/h 3.2 km/h 93% 0.0 mm 69 W/m2
10:40 3 °C 2 °C 1000.3 hPa ENE 1.4 km/h 3.2 km/h 93% 0.0 mm 91 W/m2
10:45 3 °C 2 °C 1000.3 hPa ENE 3.2 km/h 4.8 km/h 93% 0.0 mm 95 W/m2
10:50 3.1 °C 2.1 °C 1000.3 hPa ENE 3.2 km/h 4.8 km/h 93% 0.0 mm 102 W/m2
10:55 3.1 °C 2.1 °C 1000.3 hPa ESE 3.2 km/h 3.2 km/h 93% 0.0 mm 109 W/m2
11:00 3.2 °C 2 °C 1000.0 hPa Calm   3.2 km/h 92% 0.0 mm 100 W/m2
11:05 3.2 °C 2 °C 1000.0 hPa East 1.4 km/h 3.2 km/h 92% 0.0 mm 97 W/m2
11:10 3.2 °C 2 °C 1000.0 hPa ENE 1.4 km/h 1.6 km/h 92% 0.0 mm 98 W/m2
11:15 3.3 °C 2.1 °C 1000.0 hPa East 1.4 km/h 4.8 km/h 92% 0.0 mm 102 W/m2
11:20 3.3 °C 2.1 °C 1000.0 hPa ENE 3.2 km/h 3.2 km/h 92% 0.0 mm 109 W/m2
11:25 3.3 °C 2.1 °C 1000.0 hPa Calm   1.6 km/h 92% 0.0 mm 132 W/m2
11:30 3.4 °C 2.2 °C 1000.0 hPa Calm   3.2 km/h 92% 0.0 mm 160 W/m2
11:35 3.6 °C 2.4 °C 1000.0 hPa East 1.4 km/h 3.2 km/h 92% 0.0 mm 128 W/m2
11:40 3.8 °C 2.6 °C 1000.0 hPa East 1.4 km/h 1.6 km/h 92% 0.0 mm 111 W/m2
11:45 3.9 °C 2.6 °C 1000.0 hPa NW 3.2 km/h 6.4 km/h 91% 0.0 mm 114 W/m2
11:50 3.9 °C 2.4 °C 1000.0 hPa SE 1.4 km/h 4.8 km/h 90% 0.0 mm 116 W/m2
11:55 4.1 °C 2.6 °C 1000.0 hPa Calm   6.4 km/h 90% 0.0 mm 139 W/m2
12:00 4.1 °C 2.5 °C 1000.0 hPa SW 6.4 km/h 8 km/h 89% 0.0 mm 98 W/m2
12:05 4.2 °C 2.5 °C 1000.0 hPa Calm   3.2 km/h 89% 0.0 mm 109 W/m2
12:10 4.2 °C 2.5 °C 1000.0 hPa NE 6.4 km/h 6.4 km/h 89% 0.0 mm 104 W/m2
12:15 4.2 °C 2.4 °C 999.7 hPa NE 1.4 km/h 4.8 km/h 88% 0.0 mm 84 W/m2
12:20 4.3 °C 2.6 °C 999.7 hPa East 1.4 km/h 3.2 km/h 89% 0.0 mm 97 W/m2
12:25 4.3 °C 2.5 °C 999.7 hPa Calm   4.8 km/h 88% 0.0 mm 67 W/m2
12:30 4.4 °C 2.6 °C 999.7 hPa Calm   1.6 km/h 88% 0.0 mm 60 W/m2
12:35 4.4 °C 2.6 °C 999.7 hPa ESE 3.2 km/h 6.4 km/h 88% 0.0 mm 51 W/m2
12:40 4.4 °C 2.7 °C 999.7 hPa ESE 3.2 km/h 6.4 km/h 89% 0.0 mm 58 W/m2
12:45 4.4 °C 2.7 °C 999.7 hPa ESE 1.4 km/h 3.2 km/h 89% 0.0 mm 63 W/m2
12:50 4.4 °C 2.7 °C 999.7 hPa ESE 1.4 km/h 3.2 km/h 89% 0.0 mm 49 W/m2
12:55 4.3 °C 2.6 °C 999.7 hPa East 3.2 km/h 4.8 km/h 89% 0.0 mm 81 W/m2
13:00 4.3 °C 2.6 °C 999.7 hPa Calm   4.8 km/h 89% 0.0 mm 60 W/m2
13:05 4.3 °C 2.6 °C 999.7 hPa Calm   6.4 km/h 89% 0.0 mm 54 W/m2
13:10 4.3 °C 2.8 °C 999.3 hPa East 3.2 km/h 4.8 km/h 90% 0.0 mm 77 W/m2
13:15 4.3 °C 2.8 °C 999.3 hPa East 1.4 km/h 6.4 km/h 90% 0.0 mm 86 W/m2
13:20 4.4 °C 2.7 °C 999.3 hPa ENE 1.4 km/h 6.4 km/h 89% 0.0 mm 111 W/m2
13:25 4.4 °C 2.7 °C 999.3 hPa East 3.2 km/h 4.8 km/h 89% 0.0 mm 88 W/m2
13:30 4.4 °C 2.7 °C 999.7 hPa WNW 3.2 km/h 3.2 km/h 89% 0.0 mm 58 W/m2
13:35 4.4 °C 2.7 °C 999.7 hPa Calm   4.8 km/h 89% 0.0 mm 47 W/m2
13:40 4.4 °C 2.7 °C 999.3 hPa East 3.2 km/h 3.2 km/h 89% 0.0 mm 40 W/m2
13:45 4.4 °C 2.7 °C 999.3 hPa East 1.4 km/h 4.8 km/h 89% 0.0 mm 44 W/m2
13:50 4.4 °C 2.7 °C 999.3 hPa Calm   6.4 km/h 89% 0.0 mm 44 W/m2
13:55 4.4 °C 2.7 °C 999.3 hPa ESE 1.4 km/h 4.8 km/h 89% 0.0 mm 35 W/m2
14:01 4.4 °C 2.9 °C 999.3 hPa ESE 1.4 km/h 6.4 km/h 90% 0.0 mm 32 W/m2
14:06 4.4 °C 2.9 °C 999.3 hPa ESE 1.4 km/h 3.2 km/h 90% 0.0 mm 35 W/m2
14:11 4.4 °C 2.9 °C 999.3 hPa SE 3.2 km/h 4.8 km/h 90% 0.0 mm 46 W/m2
14:16 4.4 °C 2.9 °C 999.3 hPa ESE 3.2 km/h 4.8 km/h 90% 0.0 mm 26 W/m2
14:21 4.4 °C 2.9 °C 999.3 hPa SE 3.2 km/h 6.4 km/h 90% 0.0 mm 25 W/m2
14:26 4.4 °C 2.9 °C 999.3 hPa ESE 3.2 km/h 6.4 km/h 90% 0.0 mm 21 W/m2
14:31 4.3 °C 2.8 °C 999.3 hPa East 1.4 km/h 4.8 km/h 90% 0.0 mm 37 W/m2
14:36 4.4 °C 2.9 °C 999.3 hPa East 6.4 km/h 9.7 km/h 90% 0.0 mm 30 W/m2
14:41 4.3 °C 2.8 °C 999.3 hPa East 3.2 km/h 6.4 km/h 90% 0.0 mm 19 W/m2
14:46 4.3 °C 2.8 °C 999.3 hPa East 4.7 km/h 9.7 km/h 90% 0.0 mm 18 W/m2
14:51 4.3 °C 2.8 °C 999.3 hPa NE 6.4 km/h 9.7 km/h 90% 0.0 mm 11 W/m2
14:56 4.3 °C 2.8 °C 999.7 hPa ENE 4.7 km/h 11.3 km/h 90% 0.0 mm 16 W/m2
15:01 4.3 °C 2.8 °C 999.7 hPa ESE 1.4 km/h 11.3 km/h 90% 0.0 mm 21 W/m2
15:06 4.3 °C 2.8 °C 999.7 hPa ESE 9.7 km/h 9.7 km/h 90% 0.0 mm 18 W/m2
15:11 4.3 °C 2.8 °C 999.7 hPa East 3.2 km/h 6.4 km/h 90% 0.0 mm 12 W/m2
15:16 4.3 °C 2.8 °C 999.7 hPa East 4.7 km/h 9.7 km/h 90% 0.0 mm 11 W/m2
15:21 4.3 °C 2.8 °C 999.7 hPa Calm   4.8 km/h 90% 0.0 mm 11 W/m2
15:26 4.3 °C 2.8 °C 999.7 hPa ESE 1.4 km/h 9.7 km/h 90% 0.0 mm 14 W/m2
15:31 4.3 °C 3 °C 999.7 hPa ESE 1.4 km/h 3.2 km/h 91% 0.0 mm 12 W/m2
15:36 4.3 °C 3 °C 999.7 hPa East 1.4 km/h 3.2 km/h 91% 0.0 mm 12 W/m2
15:41 4.3 °C 3 °C 999.7 hPa East 1.4 km/h 3.2 km/h 91% 0.0 mm 16 W/m2
15:46 4.3 °C 3 °C 999.7 hPa ENE 3.2 km/h 4.8 km/h 91% 0.0 mm 25 W/m2
15:51 4.4 °C 3.1 °C 999.7 hPa East 1.4 km/h 3.2 km/h 91% 0.0 mm 32 W/m2
15:56 4.4 °C 3.1 °C 999.7 hPa East 1.4 km/h 4.8 km/h 91% 0.0 mm 25 W/m2
16:01 4.4 °C 3.1 °C 999.7 hPa ENE 1.4 km/h 4.8 km/h 91% 0.0 mm 19 W/m2
16:06 4.4 °C 3.2 °C 999.7 hPa East 1.4 km/h 4.8 km/h 92% 0.0 mm 11 W/m2
16:11 4.4 °C 3.2 °C 999.7 hPa East 1.4 km/h 3.2 km/h 92% 0.0 mm 0 W/m2
16:16 4.4 °C 3.2 °C 999.7 hPa Calm   4.8 km/h 92% 0.0 mm 0 W/m2
16:21 4.4 °C 3.2 °C 999.7 hPa East 3.2 km/h 6.4 km/h 92% 0.0 mm 5 W/m2
16:26 4.4 °C 3.1 °C 999.7 hPa SE 3.2 km/h 6.4 km/h 91% 0.0 mm 0 W/m2
16:31 4.3 °C 3 °C 999.7 hPa ENE 4.7 km/h 8 km/h 91% 0.0 mm 0 W/m2
16:36 4.3 °C 2.8 °C 999.7 hPa East 3.2 km/h 6.4 km/h 90% 0.0 mm 0 W/m2
16:41 4.3 °C 2.8 °C 999.7 hPa East 1.4 km/h 6.4 km/h 90% 0.0 mm 0 W/m2
16:46 4.3 °C 2.8 °C 999.7 hPa East 3.2 km/h 4.8 km/h 90% 0.0 mm 0 W/m2
16:51 4.3 °C 2.8 °C 999.7 hPa East 1.4 km/h 3.2 km/h 90% 0.0 mm 0 W/m2
16:56 4.3 °C 2.6 °C 999.7 hPa East 3.2 km/h 4.8 km/h 89% 0.0 mm 0 W/m2
17:01 4.3 °C 2.6 °C 999.7 hPa ESE 1.4 km/h 4.8 km/h 89% 0.0 mm 0 W/m2
17:06 4.3 °C 2.6 °C 999.7 hPa ENE 3.2 km/h 6.4 km/h 89% 0.0 mm 0 W/m2
17:11 4.3 °C 2.6 °C 1000.0 hPa Calm   11.3 km/h 89% 0.0 mm 0 W/m2
17:16 4.3 °C 2.6 °C 1000.0 hPa ENE 3.2 km/h 6.4 km/h 89% 0.0 mm 0 W/m2
17:21 4.2 °C 2.4 °C 1000.0 hPa East 1.4 km/h 9.7 km/h 88% 0.0 mm 0 W/m2
17:26 4.3 °C 2.6 °C 1000.0 hPa Calm   1.6 km/h 89% 0.0 mm 0 W/m2
17:31 4.2 °C 2.5 °C 1000.0 hPa East 3.2 km/h 6.4 km/h 89% 0.0 mm 0 W/m2
17:36 4.2 °C 2.4 °C 1000.0 hPa East 1.4 km/h 3.2 km/h 88% 0.0 mm 0 W/m2
17:41 4.2 °C 2.4 °C 1000.0 hPa ESE 1.4 km/h 3.2 km/h 88% 0.0 mm 0 W/m2
17:46 4.2 °C 2.4 °C 1000.0 hPa ESE 1.4 km/h 4.8 km/h 88% 0.0 mm 0 W/m2
17:51 4.1 °C 2.3 °C 1000.0 hPa East 3.2 km/h 3.2 km/h 88% 0.0 mm 0 W/m2
17:56 4.1 °C 2.3 °C 1000.0 hPa Calm   6.4 km/h 88% 0.0 mm 0 W/m2
18:01 4 °C 2.2 °C 1000.0 hPa Calm   4.8 km/h 88% 0.0 mm 0 W/m2
18:06 4 °C 2.2 °C 1000.0 hPa ENE 3.2 km/h 4.8 km/h 88% 0.0 mm 0 W/m2
18:11 4 °C 2.2 °C 1000.0 hPa ENE 1.4 km/h 3.2 km/h 88% 0.0 mm 0 W/m2
18:16 4 °C 2.2 °C 1000.0 hPa ENE 1.4 km/h 1.6 km/h 88% 0.0 mm 0 W/m2
18:21 3.9 °C 2.1 °C 1000.0 hPa ENE 1.4 km/h 1.6 km/h 88% 0.0 mm 0 W/m2
18:26 3.9 °C 2.1 °C 1000.0 hPa Calm     88% 0.0 mm 0 W/m2
18:31 3.8 °C 2 °C 1000.0 hPa Calm   1.6 km/h 88% 0.0 mm 0 W/m2
18:36 3.8 °C 2 °C 1000.0 hPa Calm     88% 0.0 mm 0 W/m2
18:41 3.8 °C 2 °C 1000.0 hPa Calm     88% 0.0 mm 0 W/m2
18:46 3.7 °C 2.1 °C 1000.0 hPa Calm     89% 0.0 mm 0 W/m2
18:51 3.7 °C 2.1 °C 1000.0 hPa Calm   1.6 km/h 89% 0.0 mm 0 W/m2
18:56 3.6 °C 2 °C 1000.0 hPa Calm     89% 0.0 mm 0 W/m2
19:01 3.6 °C 2 °C 1000.3 hPa Calm     89% 0.0 mm 0 W/m2
19:06 3.5 °C 1.9 °C 1000.0 hPa Calm     89% 0.0 mm 0 W/m2
19:11 3.4 °C 1.9 °C 1000.0 hPa Calm     90% 0.0 mm 0 W/m2
19:16 3.3 °C 1.8 °C 1000.0 hPa Calm     90% 0.0 mm 0 W/m2
19:21 3.3 °C 1.8 °C 1000.0 hPa Calm     90% 0.0 mm 0 W/m2
19:26 3.3 °C 1.8 °C 1000.0 hPa Calm     90% 0.0 mm 0 W/m2
19:31 3.2 °C 1.7 °C 1000.0 hPa Calm   1.6 km/h 90% 0.0 mm 0 W/m2
19:36 3.2 °C 1.7 °C 1000.0 hPa Calm     90% 0.0 mm 0 W/m2
19:41 3.2 °C 1.9 °C 1000.0 hPa Calm   1.6 km/h 91% 0.0 mm 0 W/m2
19:46 3.2 °C 1.9 °C 1000.0 hPa Calm     91% 0.0 mm 0 W/m2
19:51 3.2 °C 1.9 °C 1000.0 hPa Calm   1.6 km/h 91% 0.0 mm 0 W/m2
19:56 3.1 °C 1.8 °C 1000.0 hPa Calm     91% 0.0 mm 0 W/m2
20:01 3.1 °C 1.8 °C 1000.0 hPa Calm   1.6 km/h 91% 0.0 mm 0 W/m2
20:06 3.1 °C 1.8 °C 1000.0 hPa Calm     91% 0.0 mm 0 W/m2
20:11 3.1 °C 1.8 °C 1000.0 hPa Calm     91% 0.0 mm 0 W/m2
20:16 3 °C 1.7 °C 1000.0 hPa Calm     91% 0.0 mm 0 W/m2
20:21 3 °C 1.7 °C 1000.0 hPa Calm     91% 0.0 mm 0 W/m2
20:26 3 °C 1.8 °C 1000.3 hPa Calm     92% 0.0 mm 0 W/m2
20:31 2.9 °C 1.7 °C 1000.3 hPa Calm     92% 0.0 mm 0 W/m2
20:36 2.9 °C 1.7 °C 1000.3 hPa Calm     92% 0.0 mm 0 W/m2
20:41 2.9 °C 1.7 °C 1000.0 hPa Calm     92% 0.0 mm 0 W/m2
20:46 2.9 °C 1.7 °C 1000.0 hPa Calm     92% 0.0 mm 0 W/m2
20:51 2.8 °C 1.6 °C 1000.3 hPa Calm   1.6 km/h 92% 0.0 mm 0 W/m2
20:56 2.8 °C 1.6 °C 1000.0 hPa Calm     92% 0.0 mm 0 W/m2
21:01 2.8 °C 1.6 °C 1000.3 hPa Calm   1.6 km/h 92% 0.0 mm 0 W/m2
21:06 2.7 °C 1.5 °C 1000.0 hPa Calm     92% 0.0 mm 0 W/m2
21:11 2.7 °C 1.5 °C 1000.0 hPa Calm     92% 0.0 mm 0 W/m2
21:16 2.7 °C 1.5 °C 1000.0 hPa Calm     92% 0.0 mm 0 W/m2
21:21 2.6 °C 1.4 °C 1000.0 hPa Calm     92% 0.0 mm 0 W/m2
21:26 2.5 °C 1.3 °C 1000.0 hPa Calm   1.6 km/h 92% 0.0 mm 0 W/m2
21:31 2.4 °C 1.2 °C 1000.0 hPa Calm     92% 0.0 mm 0 W/m2
21:36 2.4 °C 1.2 °C 1000.0 hPa Calm     92% 0.0 mm 0 W/m2
21:42 2.3 °C 1.1 °C 1000.0 hPa Calm     92% 0.0 mm 0 W/m2
21:47 2.2 °C 0.9 °C 999.7 hPa Calm     91% 0.0 mm 0 W/m2
21:52 2.1 °C 0.9 °C 999.7 hPa Calm     92% 0.0 mm 0 W/m2
21:57 1.9 °C 0.7 °C 1000.0 hPa Calm     92% 0.0 mm 0 W/m2
22:02 1.8 °C 0.5 °C 1000.0 hPa Calm     91% 0.0 mm 0 W/m2
22:07 1.7 °C 0.5 °C 999.7 hPa Calm     92% 0.0 mm 0 W/m2
22:12 1.6 °C 0.4 °C 999.7 hPa Calm     92% 0.0 mm 0 W/m2
22:17 1.5 °C 0.3 °C 1000.0 hPa Calm     92% 0.0 mm 0 W/m2
22:22 1.4 °C 0.4 °C 1000.0 hPa Calm     93% 0.0 mm 0 W/m2
22:27 1.4 °C 0.4 °C 999.7 hPa Calm     93% 0.0 mm 0 W/m2
22:32 1.3 °C 0.3 °C 999.7 hPa Calm     93% 0.0 mm 0 W/m2
22:37 1.2 °C 0.2 °C 999.7 hPa Calm     93% 0.0 mm 0 W/m2
22:42 1 °C 0 °C 999.7 hPa Calm     93% 0.0 mm 0 W/m2
22:47 0.9 °C -0.1 °C 999.7 hPa Calm     93% 0.0 mm 0 W/m2
22:52 0.9 °C 0 °C 999.7 hPa Calm     94% 0.0 mm 0 W/m2
22:57 0.8 °C -0.1 °C 999.7 hPa Calm     94% 0.0 mm 0 W/m2
23:02 0.8 °C -0.1 °C 999.7 hPa Calm     94% 0.0 mm 0 W/m2
23:07 0.7 °C -0.2 °C 999.7 hPa Calm     94% 0.0 mm 0 W/m2
23:12 0.7 °C -0.2 °C 999.7 hPa Calm     94% 0.0 mm 0 W/m2
23:17 0.6 °C -0.3 °C 999.7 hPa Calm     94% 0.0 mm 0 W/m2
23:22 0.6 °C -0.3 °C 999.7 hPa Calm     94% 0.0 mm 0 W/m2
23:27 0.6 °C -0.3 °C 999.7 hPa Calm     94% 0.0 mm 0 W/m2
23:32 0.5 °C -0.2 °C 999.7 hPa Calm     95% 0.0 mm 0 W/m2
23:37 0.4 °C -0.5 °C 999.7 hPa Calm     94% 0.0 mm 0 W/m2
23:42 0.4 °C -0.5 °C 999.7 hPa Calm     94% 0.0 mm 0 W/m2
23:47 0.3 °C -0.4 °C 999.7 hPa Calm     95% 0.0 mm 0 W/m2
23:52 0.3 °C -0.4 °C 999.7 hPa Calm     95% 0.0 mm 0 W/m2
23:57 0.2 °C -0.5 °C 999.7 hPa Calm     95% 0.0 mm 0 W/m2
Juneau County Weather
Compliments of Weather Underground - 2 mb